createdAt,value
2019-02-23T00:02:22.026Z,9.20
2019-02-23T00:04:53.770Z,9.07
2019-02-23T00:07:25.495Z,10.53
2019-02-23T00:09:57.273Z,10.37
2019-02-23T00:12:29.121Z,9.93
2019-02-23T00:15:02.131Z,9.83
2019-02-23T00:17:33.850Z,9.60
2019-02-23T00:20:05.913Z,10.97
2019-02-23T00:22:37.765Z,10.67
2019-02-23T00:25:09.787Z,9.23
2019-02-23T00:27:41.608Z,9.27
2019-02-23T00:30:13.504Z,9.37
2019-02-23T00:32:45.198Z,9.93
2019-02-23T00:35:16.957Z,11.20
2019-02-23T00:37:49.006Z,10.20
2019-02-23T00:40:20.936Z,9.43
2019-02-23T00:42:52.724Z,10.37
2019-02-23T00:45:24.563Z,10.33
2019-02-23T00:47:56.265Z,10.83
2019-02-23T00:50:28.146Z,9.07
2019-02-23T00:53:00.052Z,10.57
2019-02-23T00:55:31.904Z,10.40
2019-02-23T00:58:03.707Z,9.57
2019-02-23T01:00:35.596Z,10.83
2019-02-23T01:03:07.324Z,10.97
2019-02-23T01:05:42.282Z,10.40
2019-02-23T01:08:14.716Z,11.87
2019-02-23T01:10:57.460Z,10.77
2019-02-23T01:13:19.871Z,10.27
2019-02-23T01:15:51.568Z,10.70
2019-02-23T01:18:23.385Z,11.20
2019-02-23T01:20:55.117Z,11.43
2019-02-23T01:23:26.936Z,11.23
2019-02-23T01:25:58.628Z,11.17
2019-02-23T01:28:30.397Z,11.90
2019-02-23T01:31:02.161Z,10.87
2019-02-23T01:33:33.931Z,11.53
2019-02-23T01:36:05.887Z,11.33
2019-02-23T01:38:37.737Z,11.43
2019-02-23T01:41:09.617Z,12.27
2019-02-23T01:43:41.291Z,11.93
2019-02-23T01:46:14.532Z,11.40
2019-02-23T01:48:46.209Z,10.77
2019-02-23T01:51:18.193Z,11.13
2019-02-23T01:53:49.881Z,11.87
2019-02-23T01:56:21.605Z,11.57
2019-02-23T01:58:53.547Z,12.03
2019-02-23T02:01:25.247Z,11.67
2019-02-23T02:03:57.269Z,11.40
2019-02-23T02:06:28.985Z,11.33
2019-02-23T02:09:00.826Z,12.03
2019-02-23T02:11:32.599Z,12.07
2019-02-23T02:14:04.575Z,12.60
2019-02-23T02:16:36.413Z,12.53
2019-02-23T02:19:08.539Z,12.73
2019-02-23T02:21:40.441Z,12.47
2019-02-23T02:24:14.442Z,12.83
2019-02-23T02:26:48.902Z,12.97
2019-02-23T02:29:20.686Z,12.37
2019-02-23T02:31:52.666Z,12.73
2019-02-23T02:34:26.314Z,12.10
2019-02-23T02:36:58.837Z,11.63
2019-02-23T02:39:30.547Z,11.50
2019-02-23T02:42:02.215Z,11.97
2019-02-23T02:44:34.175Z,11.97
2019-02-23T02:47:06.191Z,10.27
2019-02-23T02:49:38.389Z,11.20
2019-02-23T02:52:10.278Z,11.80
2019-02-23T02:54:42.005Z,10.77
2019-02-23T02:57:17.667Z,11.57
2019-02-23T02:59:50.161Z,11.13
2019-02-23T03:02:22.048Z,10.20
2019-02-23T03:04:53.870Z,11.07
2019-02-23T03:07:25.566Z,10.47
2019-02-23T03:09:57.467Z,10.87
2019-02-23T03:12:29.556Z,10.67
2019-02-23T03:15:01.314Z,9.83
2019-02-23T03:17:33.956Z,9.97
2019-02-23T03:20:06.780Z,9.80
2019-02-23T03:22:38.704Z,10.37
2019-02-23T03:25:10.502Z,10.00
2019-02-23T03:27:42.938Z,10.43
2019-02-23T03:30:14.694Z,10.43
2019-02-23T03:32:46.576Z,11.20
2019-02-23T03:35:18.798Z,10.83
2019-02-23T03:37:50.619Z,10.57
2019-02-23T03:40:23.190Z,10.10
2019-02-23T03:42:54.962Z,11.37
2019-02-23T03:45:28.316Z,10.83
2019-02-23T03:48:00.011Z,10.03
2019-02-23T03:50:32.893Z,9.93
2019-02-23T03:53:04.954Z,11.20
2019-02-23T03:55:37.365Z,9.33
2019-02-23T03:58:09.171Z,9.87
2019-02-23T04:00:40.903Z,8.87
2019-02-23T04:03:12.659Z,9.23
2019-02-23T04:05:44.417Z,10.27
2019-02-23T04:08:16.112Z,10.30
2019-02-23T04:10:47.745Z,10.57
2019-02-23T04:13:19.490Z,9.70
2019-02-23T04:15:51.599Z,10.40
2019-02-23T04:18:23.471Z,8.90
2019-02-23T04:21:01.878Z,10.50
2019-02-23T04:23:28.998Z,10.57
2019-02-23T04:26:01.364Z,10.23
2019-02-23T04:28:33.080Z,9.67
2019-02-23T04:31:04.843Z,10.33
2019-02-23T04:33:36.616Z,10.00
2019-02-23T04:36:08.334Z,11.00
2019-02-23T04:38:40.101Z,10.23
2019-02-23T04:41:12.030Z,9.80
2019-02-23T04:43:44.403Z,10.73
2019-02-23T04:46:16.325Z,10.20
2019-02-23T04:48:48.122Z,9.97
2019-02-23T04:51:19.871Z,10.20
2019-02-23T04:53:51.639Z,9.53
2019-02-23T04:56:23.445Z,10.30
2019-02-23T04:58:56.639Z,10.43
2019-02-23T05:01:28.342Z,9.97
2019-02-23T05:03:59.993Z,8.80
2019-02-23T05:06:31.691Z,9.47
2019-02-23T05:09:05.015Z,9.53
2019-02-23T05:11:36.654Z,9.73
2019-02-23T05:14:11.572Z,9.63
2019-02-23T05:16:43.256Z,9.63
2019-02-23T05:19:15.823Z,10.27
2019-02-23T05:21:50.904Z,9.77
2019-02-23T05:24:22.682Z,8.60
2019-02-23T05:26:54.403Z,9.67
2019-02-23T05:29:27.290Z,9.20
2019-02-23T05:31:59.206Z,9.03
2019-02-23T05:34:30.989Z,10.83
2019-02-23T05:37:02.607Z,10.30
2019-02-23T05:39:34.347Z,9.50
2019-02-23T05:42:06.278Z,10.37
2019-02-23T05:44:38.042Z,9.47
2019-02-23T05:47:10.088Z,10.67
2019-02-23T05:49:41.957Z,9.30
2019-02-23T05:52:13.673Z,9.63
2019-02-23T05:54:45.407Z,10.23
2019-02-23T05:57:17.068Z,9.33
2019-02-23T05:59:48.844Z,8.77
2019-02-23T06:02:20.548Z,8.60
2019-02-23T06:04:52.250Z,9.30
2019-02-23T06:07:23.935Z,8.77
2019-02-23T06:09:56.504Z,9.37
2019-02-23T06:12:28.183Z,8.53
2019-02-23T06:14:59.998Z,8.93
2019-02-23T06:17:32.095Z,9.27
2019-02-23T06:20:03.848Z,9.23
2019-02-23T06:22:36.414Z,9.33
2019-02-23T06:25:09.762Z,9.57
2019-02-23T06:27:41.404Z,9.40
2019-02-23T06:30:32.100Z,9.53
2019-02-23T06:33:03.873Z,9.40
2019-02-23T06:35:35.955Z,9.77
2019-02-23T06:38:07.776Z,9.27
2019-02-23T06:40:39.715Z,9.00
2019-02-23T06:43:11.379Z,9.13
2019-02-23T06:45:43.139Z,8.90
2019-02-23T06:48:14.884Z,9.70
2019-02-23T06:50:46.563Z,9.97
2019-02-23T06:53:18.242Z,10.57
2019-02-23T06:55:50.056Z,11.37
2019-02-23T06:58:21.712Z,12.03
2019-02-23T07:00:54.648Z,10.57
2019-02-23T07:03:27.100Z,10.53
2019-02-23T07:05:59.326Z,10.63
2019-02-23T07:08:31.288Z,9.43
2019-02-23T07:11:03.128Z,8.97
2019-02-23T07:13:34.892Z,9.23
2019-02-23T07:16:06.561Z,8.53
2019-02-23T07:18:38.297Z,9.17
2019-02-23T07:21:10.021Z,9.43
2019-02-23T07:23:43.485Z,9.63
2019-02-23T07:26:15.229Z,9.37
2019-02-23T07:28:48.558Z,9.03
2019-02-23T07:31:22.939Z,9.17
2019-02-23T07:33:58.984Z,8.30
2019-02-23T07:36:34.570Z,9.40
2019-02-23T07:39:09.042Z,8.73
2019-02-23T07:41:42.964Z,8.80
2019-02-23T07:44:14.777Z,9.30
2019-02-23T07:46:46.423Z,8.43
2019-02-23T07:49:19.621Z,8.30
2019-02-23T07:51:54.375Z,8.77
2019-02-23T07:54:26.115Z,9.40
2019-02-23T07:56:57.859Z,9.10
2019-02-23T07:59:29.629Z,9.97
2019-02-23T08:02:04.143Z,8.40
2019-02-23T08:04:37.412Z,9.63
2019-02-23T08:07:11.815Z,9.83
2019-02-23T08:09:43.751Z,10.57
2019-02-23T08:12:16.123Z,9.67
2019-02-23T08:14:48.104Z,9.67
2019-02-23T08:17:19.957Z,8.77
2019-02-23T08:19:51.898Z,8.50
2019-02-23T08:22:24.348Z,8.97
2019-02-23T08:24:56.257Z,9.13
2019-02-23T08:27:28.163Z,9.57
2019-02-23T08:29:59.845Z,9.03
2019-02-23T08:32:31.629Z,10.30
2019-02-23T08:35:03.543Z,9.07
2019-02-23T08:37:35.338Z,9.90
2019-02-23T08:40:07.520Z,8.07
2019-02-23T08:42:39.370Z,9.30
2019-02-23T08:45:11.528Z,9.10
2019-02-23T08:47:43.413Z,8.27
2019-02-23T08:50:15.089Z,8.83
2019-02-23T08:52:49.860Z,9.17
2019-02-23T08:55:20.597Z,8.30
2019-02-23T08:57:52.373Z,9.10
2019-02-23T09:00:24.161Z,9.67
2019-02-23T09:02:55.918Z,8.73
2019-02-23T09:05:27.650Z,8.23
2019-02-23T09:07:59.314Z,9.27
2019-02-23T09:10:31.275Z,8.77
2019-02-23T09:13:03.335Z,8.90
2019-02-23T09:15:35.273Z,8.70
2019-02-23T09:18:07.131Z,9.23
2019-02-23T09:20:39.069Z,8.37
2019-02-23T09:23:10.975Z,8.57
2019-02-23T09:25:42.880Z,8.57
2019-02-23T09:28:14.836Z,8.87
2019-02-23T09:30:46.555Z,8.53
2019-02-23T09:33:18.877Z,8.40
2019-02-23T09:35:50.903Z,8.00
2019-02-23T09:38:22.608Z,8.17
2019-02-23T09:40:54.662Z,7.77
2019-02-23T09:43:27.611Z,7.70
2019-02-23T09:45:59.579Z,6.70
2019-02-23T09:48:31.425Z,7.60
2019-02-23T09:51:03.274Z,8.63
2019-02-23T09:53:35.159Z,7.87
2019-02-23T09:56:07.151Z,8.13
2019-02-23T09:58:38.970Z,8.37
2019-02-23T10:01:10.889Z,7.63
2019-02-23T10:03:42.755Z,7.20
2019-02-23T10:06:14.864Z,8.37
2019-02-23T10:08:46.601Z,7.40
2019-02-23T10:11:18.565Z,8.10
2019-02-23T10:13:50.448Z,8.13
2019-02-23T10:16:22.185Z,8.90
2019-02-23T10:18:54.104Z,9.53
2019-02-23T10:21:25.981Z,8.73
2019-02-23T10:23:57.770Z,8.77
2019-02-23T10:26:29.471Z,8.50
2019-02-23T10:29:01.248Z,8.17
2019-02-23T10:31:36.115Z,8.67
2019-02-23T10:34:07.923Z,8.77
2019-02-23T10:36:39.761Z,9.13
2019-02-23T10:39:11.705Z,8.90
2019-02-23T10:41:43.604Z,8.80
2019-02-23T10:44:15.324Z,8.00
2019-02-23T10:46:47.492Z,8.40
2019-02-23T10:49:20.688Z,8.30
2019-02-23T10:51:52.617Z,9.23
2019-02-23T10:54:25.049Z,9.10
2019-02-23T10:56:58.128Z,8.03
2019-02-23T10:59:29.832Z,8.80
2019-02-23T11:02:01.942Z,8.97
2019-02-23T11:04:36.090Z,8.47
2019-02-23T11:07:07.918Z,9.10
2019-02-23T11:09:40.104Z,8.50
2019-02-23T11:12:11.957Z,8.47
2019-02-23T11:14:43.655Z,8.30
2019-02-23T11:17:16.376Z,8.25
2019-02-23T11:19:48.746Z,7.92
2019-02-23T11:22:20.455Z,8.25
2019-02-23T11:24:52.924Z,7.92
2019-02-23T11:27:25.018Z,8.10
2019-02-23T11:29:57.711Z,8.43
2019-02-23T11:32:29.788Z,8.30
2019-02-23T11:35:02.070Z,8.48
2019-02-23T11:37:34.391Z,7.78
2019-02-23T11:40:07.637Z,7.95
2019-02-23T11:42:39.887Z,7.30
2019-02-23T11:45:11.803Z,7.33
2019-02-23T11:47:44.058Z,7.30
2019-02-23T11:50:15.813Z,7.72
2019-02-23T11:52:48.167Z,7.15
2019-02-23T11:55:20.021Z,7.85
